sensor_id;sensor_type;location;lat;lon;timestamp;P1;durP1;ratioP1;P2;durP2;ratioP2
17382;SDS011;8809;51.892;8.384;2023-03-31T00:01:05;2.50;;;1.40;;
17382;SDS011;8809;51.892;8.384;2023-03-31T00:03:34;7.40;;;1.95;;
17382;SDS011;8809;51.892;8.384;2023-03-31T00:06:02;6.55;;;1.67;;
17382;SDS011;8809;51.892;8.384;2023-03-31T00:08:31;3.97;;;1.10;;
17382;SDS011;8809;51.892;8.384;2023-03-31T00:11:01;2.20;;;1.35;;
17382;SDS011;8809;51.892;8.384;2023-03-31T00:13:29;3.60;;;1.23;;
17382;SDS011;8809;51.892;8.384;2023-03-31T00:15:57;3.58;;;1.30;;
17382;SDS011;8809;51.892;8.384;2023-03-31T00:18:26;3.90;;;1.50;;
17382;SDS011;8809;51.892;8.384;2023-03-31T00:20:58;2.45;;;1.25;;
17382;SDS011;8809;51.892;8.384;2023-03-31T00:23:32;2.50;;;1.10;;
17382;SDS011;8809;51.892;8.384;2023-03-31T00:25:59;1.45;;;1.00;;
17382;SDS011;8809;51.892;8.384;2023-03-31T00:28:26;3.28;;;1.13;;
17382;SDS011;8809;51.892;8.384;2023-03-31T00:30:58;1.60;;;0.90;;
17382;SDS011;8809;51.892;8.384;2023-03-31T00:33:25;4.70;;;0.98;;
17382;SDS011;8809;51.892;8.384;2023-03-31T00:35:52;1.70;;;0.90;;
17382;SDS011;8809;51.892;8.384;2023-03-31T00:38:21;2.05;;;1.00;;
17382;SDS011;8809;51.892;8.384;2023-03-31T00:40:48;2.33;;;0.90;;
17382;SDS011;8809;51.892;8.384;2023-03-31T00:43:28;3.65;;;1.08;;
17382;SDS011;8809;51.892;8.384;2023-03-31T00:45:59;3.00;;;1.08;;
17382;SDS011;8809;51.892;8.384;2023-03-31T00:48:44;1.90;;;1.00;;
17382;SDS011;8809;51.892;8.384;2023-03-31T00:51:14;2.30;;;1.10;;
17382;SDS011;8809;51.892;8.384;2023-03-31T00:53:43;3.53;;;1.33;;
17382;SDS011;8809;51.892;8.384;2023-03-31T00:56:14;3.63;;;1.50;;
17382;SDS011;8809;51.892;8.384;2023-03-31T00:58:43;3.53;;;1.42;;
17382;SDS011;8809;51.892;8.384;2023-03-31T01:01:12;4.03;;;1.42;;
17382;SDS011;8809;51.892;8.384;2023-03-31T01:03:44;2.80;;;1.20;;
17382;SDS011;8809;51.892;8.384;2023-03-31T01:06:13;3.67;;;1.52;;
17382;SDS011;8809;51.892;8.384;2023-03-31T01:08:45;4.80;;;1.83;;
17382;SDS011;8809;51.892;8.384;2023-03-31T01:11:15;2.20;;;1.40;;
17382;SDS011;8809;51.892;8.384;2023-03-31T01:13:44;3.83;;;1.20;;
17382;SDS011;8809;51.892;8.384;2023-03-31T01:16:15;3.28;;;1.38;;
17382;SDS011;8809;51.892;8.384;2023-03-31T01:18:42;3.92;;;1.50;;
17382;SDS011;8809;51.892;8.384;2023-03-31T01:21:22;2.47;;;1.30;;
17382;SDS011;8809;51.892;8.384;2023-03-31T01:27:22;1.15;;;1.02;;
17382;SDS011;8809;51.892;8.384;2023-03-31T01:30:24;4.20;;;1.80;;
17382;SDS011;8809;51.892;8.384;2023-03-31T01:33:18;3.25;;;1.10;;
17382;SDS011;8809;51.892;8.384;2023-03-31T01:36:27;2.80;;;1.52;;
17382;SDS011;8809;51.892;8.384;2023-03-31T01:42:21;4.03;;;1.20;;
17382;SDS011;8809;51.892;8.384;2023-03-31T01:44:56;2.47;;;1.50;;
17382;SDS011;8809;51.892;8.384;2023-03-31T01:47:30;2.75;;;1.60;;
17382;SDS011;8809;51.892;8.384;2023-03-31T01:50:05;2.70;;;1.15;;
17382;SDS011;8809;51.892;8.384;2023-03-31T01:52:37;2.28;;;1.05;;
17382;SDS011;8809;51.892;8.384;2023-03-31T01:55:10;2.13;;;1.30;;
17382;SDS011;8809;51.892;8.384;2023-03-31T01:57:44;1.88;;;1.00;;
17382;SDS011;8809;51.892;8.384;2023-03-31T02:00:17;3.75;;;1.17;;
17382;SDS011;8809;51.892;8.384;2023-03-31T02:02:52;1.20;;;0.90;;
17382;SDS011;8809;51.892;8.384;2023-03-31T02:05:24;3.03;;;1.30;;
17382;SDS011;8809;51.892;8.384;2023-03-31T02:07:54;4.35;;;1.52;;
17382;SDS011;8809;51.892;8.384;2023-03-31T02:10:28;4.15;;;1.42;;
17382;SDS011;8809;51.892;8.384;2023-03-31T02:12:57;5.75;;;1.90;;
17382;SDS011;8809;51.892;8.384;2023-03-31T02:15:28;8.35;;;2.53;;
17382;SDS011;8809;51.892;8.384;2023-03-31T02:17:59;2.75;;;1.50;;
17382;SDS011;8809;51.892;8.384;2023-03-31T02:20:35;3.15;;;1.40;;
17382;SDS011;8809;51.892;8.384;2023-03-31T02:23:06;6.03;;;1.65;;
17382;SDS011;8809;51.892;8.384;2023-03-31T02:25:37;4.53;;;1.95;;
17382;SDS011;8809;51.892;8.384;2023-03-31T02:28:11;5.90;;;1.75;;
17382;SDS011;8809;51.892;8.384;2023-03-31T02:30:47;4.15;;;1.42;;
17382;SDS011;8809;51.892;8.384;2023-03-31T02:33:22;4.18;;;1.75;;
17382;SDS011;8809;51.892;8.384;2023-03-31T02:35:49;4.45;;;1.63;;
17382;SDS011;8809;51.892;8.384;2023-03-31T02:38:16;5.28;;;2.17;;
17382;SDS011;8809;51.892;8.384;2023-03-31T02:40:45;5.05;;;1.50;;
17382;SDS011;8809;51.892;8.384;2023-03-31T02:43:12;4.22;;;1.60;;
17382;SDS011;8809;51.892;8.384;2023-03-31T02:45:43;5.65;;;1.90;;
17382;SDS011;8809;51.892;8.384;2023-03-31T02:48:13;6.20;;;2.13;;
17382;SDS011;8809;51.892;8.384;2023-03-31T02:50:50;2.92;;;1.40;;
17382;SDS011;8809;51.892;8.384;2023-03-31T02:53:30;6.68;;;1.60;;
17382;SDS011;8809;51.892;8.384;2023-03-31T02:56:14;6.00;;;1.50;;
17382;SDS011;8809;51.892;8.384;2023-03-31T02:58:51;3.75;;;1.42;;
17382;SDS011;8809;51.892;8.384;2023-03-31T03:01:36;5.55;;;1.45;;
17382;SDS011;8809;51.892;8.384;2023-03-31T03:04:14;5.10;;;1.60;;
17382;SDS011;8809;51.892;8.384;2023-03-31T03:07:01;5.00;;;1.60;;
17382;SDS011;8809;51.892;8.384;2023-03-31T03:09:35;5.18;;;1.88;;
17382;SDS011;8809;51.892;8.384;2023-03-31T03:12:16;4.07;;;1.70;;
17382;SDS011;8809;51.892;8.384;2023-03-31T03:14:49;6.45;;;2.00;;
17382;SDS011;8809;51.892;8.384;2023-03-31T03:17:22;5.32;;;1.80;;
17382;SDS011;8809;51.892;8.384;2023-03-31T03:19:52;6.68;;;1.77;;
17382;SDS011;8809;51.892;8.384;2023-03-31T03:22:21;5.90;;;1.98;;
17382;SDS011;8809;51.892;8.384;2023-03-31T03:24:49;6.13;;;1.67;;
17382;SDS011;8809;51.892;8.384;2023-03-31T03:27:18;5.72;;;1.60;;
17382;SDS011;8809;51.892;8.384;2023-03-31T03:29:46;6.10;;;1.67;;
17382;SDS011;8809;51.892;8.384;2023-03-31T03:32:13;5.43;;;1.60;;
17382;SDS011;8809;51.892;8.384;2023-03-31T03:34:41;2.55;;;1.27;;
17382;SDS011;8809;51.892;8.384;2023-03-31T03:37:08;3.58;;;1.40;;
17382;SDS011;8809;51.892;8.384;2023-03-31T03:39:35;1.98;;;0.93;;
17382;SDS011;8809;51.892;8.384;2023-03-31T03:42:02;3.97;;;1.52;;
17382;SDS011;8809;51.892;8.384;2023-03-31T03:44:31;7.50;;;1.75;;
17382;SDS011;8809;51.892;8.384;2023-03-31T03:46:58;3.38;;;1.58;;
17382;SDS011;8809;51.892;8.384;2023-03-31T03:49:25;5.47;;;1.70;;
17382;SDS011;8809;51.892;8.384;2023-03-31T03:51:52;2.92;;;1.50;;
17382;SDS011;8809;51.892;8.384;2023-03-31T03:54:19;3.70;;;1.80;;
17382;SDS011;8809;51.892;8.384;2023-03-31T03:56:46;3.45;;;1.48;;
17382;SDS011;8809;51.892;8.384;2023-03-31T03:59:13;2.20;;;1.33;;
17382;SDS011;8809;51.892;8.384;2023-03-31T04:01:42;1.80;;;1.30;;
17382;SDS011;8809;51.892;8.384;2023-03-31T04:04:09;4.70;;;1.48;;
17382;SDS011;8809;51.892;8.384;2023-03-31T04:06:36;3.67;;;1.20;;
17382;SDS011;8809;51.892;8.384;2023-03-31T04:09:03;1.50;;;1.30;;
17382;SDS011;8809;51.892;8.384;2023-03-31T04:11:31;1.67;;;1.30;;
17382;SDS011;8809;51.892;8.384;2023-03-31T04:13:58;7.50;;;1.90;;
17382;SDS011;8809;51.892;8.384;2023-03-31T04:16:25;3.10;;;1.40;;
17382;SDS011;8809;51.892;8.384;2023-03-31T04:18:53;2.45;;;1.17;;
17382;SDS011;8809;51.892;8.384;2023-03-31T04:21:24;1.75;;;1.20;;
17382;SDS011;8809;51.892;8.384;2023-03-31T04:23:51;4.88;;;1.92;;
17382;SDS011;8809;51.892;8.384;2023-03-31T04:26:27;3.83;;;1.40;;
17382;SDS011;8809;51.892;8.384;2023-03-31T04:29:03;2.80;;;1.30;;
17382;SDS011;8809;51.892;8.384;2023-03-31T04:31:31;1.55;;;1.10;;
17382;SDS011;8809;51.892;8.384;2023-03-31T04:34:04;3.50;;;1.40;;
17382;SDS011;8809;51.892;8.384;2023-03-31T04:36:37;3.85;;;1.20;;
17382;SDS011;8809;51.892;8.384;2023-03-31T04:39:07;3.03;;;1.77;;
17382;SDS011;8809;51.892;8.384;2023-03-31T04:41:36;2.90;;;1.38;;
17382;SDS011;8809;51.892;8.384;2023-03-31T04:44:03;2.00;;;1.30;;
17382;SDS011;8809;51.892;8.384;2023-03-31T04:46:31;2.47;;;1.15;;
17382;SDS011;8809;51.892;8.384;2023-03-31T04:48:58;1.88;;;1.00;;
17382;SDS011;8809;51.892;8.384;2023-03-31T04:51:28;2.22;;;1.10;;
17382;SDS011;8809;51.892;8.384;2023-03-31T04:53:55;3.67;;;1.40;;
17382;SDS011;8809;51.892;8.384;2023-03-31T04:56:22;2.40;;;1.27;;
17382;SDS011;8809;51.892;8.384;2023-03-31T04:58:50;1.80;;;1.33;;
17382;SDS011;8809;51.892;8.384;2023-03-31T05:01:17;3.78;;;1.52;;
17382;SDS011;8809;51.892;8.384;2023-03-31T05:03:44;2.67;;;1.10;;
17382;SDS011;8809;51.892;8.384;2023-03-31T05:06:12;3.15;;;1.38;;
17382;SDS011;8809;51.892;8.384;2023-03-31T05:08:41;3.88;;;1.60;;
17382;SDS011;8809;51.892;8.384;2023-03-31T05:11:09;3.67;;;1.30;;
17382;SDS011;8809;51.892;8.384;2023-03-31T05:13:37;6.60;;;2.10;;
17382;SDS011;8809;51.892;8.384;2023-03-31T05:16:07;3.40;;;1.65;;
17382;SDS011;8809;51.892;8.384;2023-03-31T05:18:36;4.85;;;2.17;;
17382;SDS011;8809;51.892;8.384;2023-03-31T05:21:10;5.07;;;2.00;;
17382;SDS011;8809;51.892;8.384;2023-03-31T05:23:37;3.72;;;1.42;;
17382;SDS011;8809;51.892;8.384;2023-03-31T05:26:06;4.75;;;1.67;;
17382;SDS011;8809;51.892;8.384;2023-03-31T05:28:33;6.28;;;2.22;;
17382;SDS011;8809;51.892;8.384;2023-03-31T05:31:00;4.43;;;2.28;;
17382;SDS011;8809;51.892;8.384;2023-03-31T05:33:28;4.60;;;1.80;;
17382;SDS011;8809;51.892;8.384;2023-03-31T05:35:56;3.13;;;2.03;;
17382;SDS011;8809;51.892;8.384;2023-03-31T05:38:24;5.80;;;2.00;;
17382;SDS011;8809;51.892;8.384;2023-03-31T05:40:55;4.80;;;1.75;;
17382;SDS011;8809;51.892;8.384;2023-03-31T05:43:24;5.28;;;1.83;;
17382;SDS011;8809;51.892;8.384;2023-03-31T05:45:51;5.65;;;1.92;;
17382;SDS011;8809;51.892;8.384;2023-03-31T05:48:18;6.45;;;2.47;;
17382;SDS011;8809;51.892;8.384;2023-03-31T05:50:46;5.40;;;2.15;;
17382;SDS011;8809;51.892;8.384;2023-03-31T05:53:13;5.90;;;2.45;;
17382;SDS011;8809;51.892;8.384;2023-03-31T05:55:40;6.93;;;1.95;;
17382;SDS011;8809;51.892;8.384;2023-03-31T05:58:07;5.85;;;1.83;;
17382;SDS011;8809;51.892;8.384;2023-03-31T06:00:36;6.47;;;1.98;;
17382;SDS011;8809;51.892;8.384;2023-03-31T06:03:03;9.77;;;2.35;;
17382;SDS011;8809;51.892;8.384;2023-03-31T06:05:32;5.00;;;1.63;;
17382;SDS011;8809;51.892;8.384;2023-03-31T06:08:00;4.80;;;2.05;;
17382;SDS011;8809;51.892;8.384;2023-03-31T06:10:28;2.85;;;1.70;;
17382;SDS011;8809;51.892;8.384;2023-03-31T06:12:55;4.80;;;2.20;;
17382;SDS011;8809;51.892;8.384;2023-03-31T06:15:23;5.70;;;1.95;;
17382;SDS011;8809;51.892;8.384;2023-03-31T06:17:57;6.25;;;2.15;;
17382;SDS011;8809;51.892;8.384;2023-03-31T06:20:26;4.88;;;1.70;;
17382;SDS011;8809;51.892;8.384;2023-03-31T06:22:54;6.28;;;2.72;;
17382;SDS011;8809;51.892;8.384;2023-03-31T06:25:21;3.88;;;1.67;;
17382;SDS011;8809;51.892;8.384;2023-03-31T06:27:49;3.35;;;1.60;;
17382;SDS011;8809;51.892;8.384;2023-03-31T06:30:35;2.83;;;1.63;;
17382;SDS011;8809;51.892;8.384;2023-03-31T06:33:21;5.03;;;1.95;;
17382;SDS011;8809;51.892;8.384;2023-03-31T06:36:07;4.30;;;1.90;;
17382;SDS011;8809;51.892;8.384;2023-03-31T06:38:35;4.47;;;1.95;;
17382;SDS011;8809;51.892;8.384;2023-03-31T06:41:06;4.80;;;1.95;;
17382;SDS011;8809;51.892;8.384;2023-03-31T06:43:53;5.22;;;2.05;;
17382;SDS011;8809;51.892;8.384;2023-03-31T06:46:21;4.82;;;2.17;;
17382;SDS011;8809;51.892;8.384;2023-03-31T06:49:08;3.83;;;2.05;;
17382;SDS011;8809;51.892;8.384;2023-03-31T06:51:36;6.65;;;2.13;;
17382;SDS011;8809;51.892;8.384;2023-03-31T06:54:03;4.30;;;2.03;;
17382;SDS011;8809;51.892;8.384;2023-03-31T06:56:31;7.60;;;2.40;;
17382;SDS011;8809;51.892;8.384;2023-03-31T06:59:17;6.28;;;2.15;;
17382;SDS011;8809;51.892;8.384;2023-03-31T07:01:44;5.88;;;1.83;;
17382;SDS011;8809;51.892;8.384;2023-03-31T07:04:14;5.88;;;2.28;;
17382;SDS011;8809;51.892;8.384;2023-03-31T07:06:41;7.28;;;2.30;;
17382;SDS011;8809;51.892;8.384;2023-03-31T07:09:26;4.03;;;1.90;;
17382;SDS011;8809;51.892;8.384;2023-03-31T07:11:53;3.90;;;1.90;;
17382;SDS011;8809;51.892;8.384;2023-03-31T07:14:39;3.63;;;1.70;;
17382;SDS011;8809;51.892;8.384;2023-03-31T07:17:24;6.95;;;2.35;;
17382;SDS011;8809;51.892;8.384;2023-03-31T07:19:58;4.25;;;2.20;;
17382;SDS011;8809;51.892;8.384;2023-03-31T07:22:27;5.97;;;2.13;;
17382;SDS011;8809;51.892;8.384;2023-03-31T07:24:54;4.10;;;1.90;;
17382;SDS011;8809;51.892;8.384;2023-03-31T07:27:21;4.93;;;2.20;;
17382;SDS011;8809;51.892;8.384;2023-03-31T07:29:48;4.57;;;1.92;;
17382;SDS011;8809;51.892;8.384;2023-03-31T07:32:16;3.40;;;2.03;;
17382;SDS011;8809;51.892;8.384;2023-03-31T07:34:45;3.40;;;1.60;;
17382;SDS011;8809;51.892;8.384;2023-03-31T07:37:13;3.80;;;1.60;;
17382;SDS011;8809;51.892;8.384;2023-03-31T07:39:42;3.97;;;1.83;;
17382;SDS011;8809;51.892;8.384;2023-03-31T07:42:09;3.90;;;1.70;;
17382;SDS011;8809;51.892;8.384;2023-03-31T07:44:36;5.70;;;1.95;;
17382;SDS011;8809;51.892;8.384;2023-03-31T07:47:03;5.15;;;2.30;;
17382;SDS011;8809;51.892;8.384;2023-03-31T07:49:31;7.60;;;1.85;;
17382;SDS011;8809;51.892;8.384;2023-03-31T07:51:59;3.88;;;1.70;;
17382;SDS011;8809;51.892;8.384;2023-03-31T07:54:28;3.67;;;1.60;;
17382;SDS011;8809;51.892;8.384;2023-03-31T07:56:56;2.95;;;1.50;;
17382;SDS011;8809;51.892;8.384;2023-03-31T07:59:26;3.53;;;1.60;;
17382;SDS011;8809;51.892;8.384;2023-03-31T08:01:55;5.90;;;1.67;;
17382;SDS011;8809;51.892;8.384;2023-03-31T08:04:22;4.35;;;1.60;;
17382;SDS011;8809;51.892;8.384;2023-03-31T08:06:49;3.58;;;1.50;;
17382;SDS011;8809;51.892;8.384;2023-03-31T08:09:18;2.75;;;1.48;;
17382;SDS011;8809;51.892;8.384;2023-03-31T08:11:49;3.95;;;1.40;;
17382;SDS011;8809;51.892;8.384;2023-03-31T08:14:18;4.07;;;1.80;;
17382;SDS011;8809;51.892;8.384;2023-03-31T08:16:45;3.92;;;1.48;;
17382;SDS011;8809;51.892;8.384;2023-03-31T08:19:13;3.15;;;1.42;;
17382;SDS011;8809;51.892;8.384;2023-03-31T08:21:40;3.72;;;1.40;;
17382;SDS011;8809;51.892;8.384;2023-03-31T08:24:08;4.13;;;1.60;;
17382;SDS011;8809;51.892;8.384;2023-03-31T08:26:35;2.85;;;1.30;;
17382;SDS011;8809;51.892;8.384;2023-03-31T08:29:04;2.20;;;1.13;;
17382;SDS011;8809;51.892;8.384;2023-03-31T08:31:32;2.38;;;1.00;;
17382;SDS011;8809;51.892;8.384;2023-03-31T08:33:59;3.47;;;1.25;;
17382;SDS011;8809;51.892;8.384;2023-03-31T08:36:27;4.40;;;1.40;;
17382;SDS011;8809;51.892;8.384;2023-03-31T08:38:55;8.40;;;1.75;;
17382;SDS011;8809;51.892;8.384;2023-03-31T08:41:26;2.50;;;1.13;;
17382;SDS011;8809;51.892;8.384;2023-03-31T08:44:15;6.43;;;1.45;;
17382;SDS011;8809;51.892;8.384;2023-03-31T08:46:47;3.92;;;1.10;;
17382;SDS011;8809;51.892;8.384;2023-03-31T08:49:17;4.70;;;1.45;;
17382;SDS011;8809;51.892;8.384;2023-03-31T08:51:47;2.25;;;1.00;;
17382;SDS011;8809;51.892;8.384;2023-03-31T08:54:16;2.05;;;1.20;;
17382;SDS011;8809;51.892;8.384;2023-03-31T08:56:49;2.03;;;1.10;;
17382;SDS011;8809;51.892;8.384;2023-03-31T08:59:21;3.05;;;1.10;;
17382;SDS011;8809;51.892;8.384;2023-03-31T09:02:00;2.30;;;1.23;;
17382;SDS011;8809;51.892;8.384;2023-03-31T09:07:38;2.30;;;1.10;;
17382;SDS011;8809;51.892;8.384;2023-03-31T09:10:21;2.90;;;1.20;;
17382;SDS011;8809;51.892;8.384;2023-03-31T09:12:59;3.10;;;1.20;;
17382;SDS011;8809;51.892;8.384;2023-03-31T09:15:39;2.72;;;1.10;;
17382;SDS011;8809;51.892;8.384;2023-03-31T09:18:16;2.72;;;1.15;;
17382;SDS011;8809;51.892;8.384;2023-03-31T09:20:45;2.28;;;1.20;;
17382;SDS011;8809;51.892;8.384;2023-03-31T09:23:20;2.95;;;1.15;;
17382;SDS011;8809;51.892;8.384;2023-03-31T09:25:52;2.42;;;1.13;;
17382;SDS011;8809;51.892;8.384;2023-03-31T09:28:25;3.50;;;1.25;;
17382;SDS011;8809;51.892;8.384;2023-03-31T09:31:07;2.63;;;1.00;;
17382;SDS011;8809;51.892;8.384;2023-03-31T09:33:41;1.65;;;0.90;;
17382;SDS011;8809;51.892;8.384;2023-03-31T09:36:13;3.00;;;1.20;;
17382;SDS011;8809;51.892;8.384;2023-03-31T09:38:42;2.90;;;1.10;;
17382;SDS011;8809;51.892;8.384;2023-03-31T09:41:11;2.05;;;1.40;;
17382;SDS011;8809;51.892;8.384;2023-03-31T09:43:41;2.97;;;1.08;;
17382;SDS011;8809;51.892;8.384;2023-03-31T09:46:14;2.90;;;1.10;;
17382;SDS011;8809;51.892;8.384;2023-03-31T09:48:49;3.10;;;1.00;;
17382;SDS011;8809;51.892;8.384;2023-03-31T09:51:22;1.83;;;1.20;;
17382;SDS011;8809;51.892;8.384;2023-03-31T09:53:56;2.53;;;1.13;;
17382;SDS011;8809;51.892;8.384;2023-03-31T09:56:34;2.67;;;1.10;;
17382;SDS011;8809;51.892;8.384;2023-03-31T09:59:14;2.33;;;1.23;;
17382;SDS011;8809;51.892;8.384;2023-03-31T10:01:45;1.73;;;1.15;;
17382;SDS011;8809;51.892;8.384;2023-03-31T10:04:17;2.33;;;1.10;;
17382;SDS011;8809;51.892;8.384;2023-03-31T10:06:48;3.50;;;1.27;;
17382;SDS011;8809;51.892;8.384;2023-03-31T10:09:16;2.08;;;1.38;;
17382;SDS011;8809;51.892;8.384;2023-03-31T10:11:55;2.58;;;1.17;;
17382;SDS011;8809;51.892;8.384;2023-03-31T10:14:32;3.00;;;1.17;;
17382;SDS011;8809;51.892;8.384;2023-03-31T10:17:06;3.08;;;1.10;;
17382;SDS011;8809;51.892;8.384;2023-03-31T10:19:33;2.78;;;1.02;;
17382;SDS011;8809;51.892;8.384;2023-03-31T10:22:04;2.95;;;1.40;;
17382;SDS011;8809;51.892;8.384;2023-03-31T10:24:35;3.28;;;1.20;;
17382;SDS011;8809;51.892;8.384;2023-03-31T10:27:04;2.45;;;1.17;;
17382;SDS011;8809;51.892;8.384;2023-03-31T10:29:33;4.10;;;1.50;;
17382;SDS011;8809;51.892;8.384;2023-03-31T10:32:02;1.90;;;1.20;;
17382;SDS011;8809;51.892;8.384;2023-03-31T10:34:32;2.08;;;1.20;;
17382;SDS011;8809;51.892;8.384;2023-03-31T10:37:00;1.85;;;1.20;;
17382;SDS011;8809;51.892;8.384;2023-03-31T10:39:30;1.73;;;1.30;;
17382;SDS011;8809;51.892;8.384;2023-03-31T10:41:58;2.53;;;1.30;;
17382;SDS011;8809;51.892;8.384;2023-03-31T10:44:33;3.00;;;1.40;;
17382;SDS011;8809;51.892;8.384;2023-03-31T10:47:03;3.50;;;1.35;;
17382;SDS011;8809;51.892;8.384;2023-03-31T10:49:37;3.75;;;1.90;;
17382;SDS011;8809;51.892;8.384;2023-03-31T10:52:13;2.40;;;1.65;;
17382;SDS011;8809;51.892;8.384;2023-03-31T10:54:50;5.03;;;1.80;;
17382;SDS011;8809;51.892;8.384;2023-03-31T10:57:22;6.43;;;1.85;;
17382;SDS011;8809;51.892;8.384;2023-03-31T11:00:00;4.32;;;1.65;;
17382;SDS011;8809;51.892;8.384;2023-03-31T11:02:50;4.13;;;1.80;;
17382;SDS011;8809;51.892;8.384;2023-03-31T11:05:46;4.25;;;2.15;;
17382;SDS011;8809;51.892;8.384;2023-03-31T11:08:24;5.97;;;2.05;;
17382;SDS011;8809;51.892;8.384;2023-03-31T11:11:07;3.42;;;1.77;;
17382;SDS011;8809;51.892;8.384;2023-03-31T11:13:50;4.45;;;1.67;;
17382;SDS011;8809;51.892;8.384;2023-03-31T11:16:27;6.50;;;2.10;;
17382;SDS011;8809;51.892;8.384;2023-03-31T11:19:06;4.38;;;1.77;;
17382;SDS011;8809;51.892;8.384;2023-03-31T11:21:46;7.00;;;2.50;;
17382;SDS011;8809;51.892;8.384;2023-03-31T11:24:36;4.63;;;1.77;;
17382;SDS011;8809;51.892;8.384;2023-03-31T11:27:23;4.50;;;2.20;;
17382;SDS011;8809;51.892;8.384;2023-03-31T11:30:06;5.85;;;1.88;;
17382;SDS011;8809;51.892;8.384;2023-03-31T11:32:45;8.60;;;2.33;;
17382;SDS011;8809;51.892;8.384;2023-03-31T11:35:30;5.65;;;2.13;;
17382;SDS011;8809;51.892;8.384;2023-03-31T11:38:21;3.92;;;1.60;;
17382;SDS011;8809;51.892;8.384;2023-03-31T11:41:01;6.82;;;2.20;;
17382;SDS011;8809;51.892;8.384;2023-03-31T11:43:34;6.70;;;2.13;;
17382;SDS011;8809;51.892;8.384;2023-03-31T11:46:07;6.97;;;2.05;;
17382;SDS011;8809;51.892;8.384;2023-03-31T11:48:40;5.78;;;1.90;;
17382;SDS011;8809;51.892;8.384;2023-03-31T11:51:13;7.40;;;2.05;;
17382;SDS011;8809;51.892;8.384;2023-03-31T11:53:46;4.57;;;1.80;;
17382;SDS011;8809;51.892;8.384;2023-03-31T11:56:17;5.60;;;2.42;;
17382;SDS011;8809;51.892;8.384;2023-03-31T11:58:48;4.20;;;1.92;;
17382;SDS011;8809;51.892;8.384;2023-03-31T12:01:22;3.72;;;2.25;;
17382;SDS011;8809;51.892;8.384;2023-03-31T12:03:55;6.10;;;2.17;;
17382;SDS011;8809;51.892;8.384;2023-03-31T12:06:28;5.50;;;2.00;;
17382;SDS011;8809;51.892;8.384;2023-03-31T12:09:03;6.10;;;2.42;;
17382;SDS011;8809;51.892;8.384;2023-03-31T12:11:37;5.15;;;2.20;;
17382;SDS011;8809;51.892;8.384;2023-03-31T12:16:58;5.45;;;2.42;;
17382;SDS011;8809;51.892;8.384;2023-03-31T12:19:32;3.78;;;2.03;;
17382;SDS011;8809;51.892;8.384;2023-03-31T12:22:07;4.57;;;2.13;;
17382;SDS011;8809;51.892;8.384;2023-03-31T12:24:42;4.93;;;1.80;;
17382;SDS011;8809;51.892;8.384;2023-03-31T12:27:12;4.05;;;1.67;;
17382;SDS011;8809;51.892;8.384;2023-03-31T12:29:44;3.60;;;1.58;;
17382;SDS011;8809;51.892;8.384;2023-03-31T12:32:17;4.53;;;1.55;;
17382;SDS011;8809;51.892;8.384;2023-03-31T12:34:49;7.10;;;1.60;;
17382;SDS011;8809;51.892;8.384;2023-03-31T12:40:25;7.75;;;1.80;;
17382;SDS011;8809;51.892;8.384;2023-03-31T12:43:10;5.50;;;1.83;;
17382;SDS011;8809;51.892;8.384;2023-03-31T12:45:54;6.88;;;1.95;;
17382;SDS011;8809;51.892;8.384;2023-03-31T12:48:43;8.20;;;2.10;;
17382;SDS011;8809;51.892;8.384;2023-03-31T12:51:24;4.22;;;2.03;;
17382;SDS011;8809;51.892;8.384;2023-03-31T12:54:13;6.93;;;2.45;;
17382;SDS011;8809;51.892;8.384;2023-03-31T12:57:07;7.63;;;2.35;;
17382;SDS011;8809;51.892;8.384;2023-03-31T12:59:42;5.47;;;1.40;;
17382;SDS011;8809;51.892;8.384;2023-03-31T13:02:16;2.83;;;1.10;;
17382;SDS011;8809;51.892;8.384;2023-03-31T13:04:50;4.57;;;1.40;;
17382;SDS011;8809;51.892;8.384;2023-03-31T13:10:25;4.45;;;1.60;;
17382;SDS011;8809;51.892;8.384;2023-03-31T13:12:58;5.07;;;1.95;;
17382;SDS011;8809;51.892;8.384;2023-03-31T13:15:29;5.20;;;1.90;;
17382;SDS011;8809;51.892;8.384;2023-03-31T13:17:57;6.20;;;1.98;;
17382;SDS011;8809;51.892;8.384;2023-03-31T13:20:34;4.22;;;1.60;;
17382;SDS011;8809;51.892;8.384;2023-03-31T13:23:08;4.50;;;1.40;;
17382;SDS011;8809;51.892;8.384;2023-03-31T13:25:44;2.70;;;1.50;;
17382;SDS011;8809;51.892;8.384;2023-03-31T13:28:16;3.95;;;1.38;;
17382;SDS011;8809;51.892;8.384;2023-03-31T13:30:57;2.88;;;1.05;;
17382;SDS011;8809;51.892;8.384;2023-03-31T13:33:27;3.55;;;1.35;;
17382;SDS011;8809;51.892;8.384;2023-03-31T13:38:50;3.00;;;1.27;;
17382;SDS011;8809;51.892;8.384;2023-03-31T13:41:31;2.45;;;1.02;;
17382;SDS011;8809;51.892;8.384;2023-03-31T13:44:27;1.92;;;0.98;;
17382;SDS011;8809;51.892;8.384;2023-03-31T13:47:30;3.60;;;1.40;;
17382;SDS011;8809;51.892;8.384;2023-03-31T13:50:38;4.05;;;1.50;;
17382;SDS011;8809;51.892;8.384;2023-03-31T13:53:19;3.67;;;1.17;;
17382;SDS011;8809;51.892;8.384;2023-03-31T13:56:20;3.10;;;1.20;;
17382;SDS011;8809;51.892;8.384;2023-03-31T13:59:12;4.00;;;1.65;;
17382;SDS011;8809;51.892;8.384;2023-03-31T14:07:54;5.18;;;1.90;;
17382;SDS011;8809;51.892;8.384;2023-03-31T14:10:26;2.95;;;1.42;;
17382;SDS011;8809;51.892;8.384;2023-03-31T14:13:06;3.13;;;1.38;;
17382;SDS011;8809;51.892;8.384;2023-03-31T14:15:35;4.13;;;1.30;;
17382;SDS011;8809;51.892;8.384;2023-03-31T14:18:06;5.63;;;1.80;;
17382;SDS011;8809;51.892;8.384;2023-03-31T14:20:39;3.67;;;1.42;;
17382;SDS011;8809;51.892;8.384;2023-03-31T14:23:20;4.53;;;1.40;;
17382;SDS011;8809;51.892;8.384;2023-03-31T14:26:00;4.60;;;1.58;;
17382;SDS011;8809;51.892;8.384;2023-03-31T14:28:39;4.72;;;1.40;;
17382;SDS011;8809;51.892;8.384;2023-03-31T14:31:37;2.45;;;1.50;;
17382;SDS011;8809;51.892;8.384;2023-03-31T14:34:19;6.53;;;1.50;;
17382;SDS011;8809;51.892;8.384;2023-03-31T14:36:57;3.38;;;1.17;;
17382;SDS011;8809;51.892;8.384;2023-03-31T14:39:26;6.30;;;1.27;;
17382;SDS011;8809;51.892;8.384;2023-03-31T14:41:59;4.38;;;1.23;;
17382;SDS011;8809;51.892;8.384;2023-03-31T14:44:28;5.15;;;1.30;;
17382;SDS011;8809;51.892;8.384;2023-03-31T14:46:56;3.42;;;1.35;;
17382;SDS011;8809;51.892;8.384;2023-03-31T14:49:26;4.78;;;1.30;;
17382;SDS011;8809;51.892;8.384;2023-03-31T14:51:59;5.95;;;1.73;;
17382;SDS011;8809;51.892;8.384;2023-03-31T14:54:32;4.03;;;1.50;;
17382;SDS011;8809;51.892;8.384;2023-03-31T14:57:02;2.85;;;1.20;;
17382;SDS011;8809;51.892;8.384;2023-03-31T14:59:31;3.78;;;1.30;;
17382;SDS011;8809;51.892;8.384;2023-03-31T15:02:02;6.07;;;1.98;;
17382;SDS011;8809;51.892;8.384;2023-03-31T15:04:34;5.43;;;1.52;;
17382;SDS011;8809;51.892;8.384;2023-03-31T15:07:10;3.65;;;1.65;;
17382;SDS011;8809;51.892;8.384;2023-03-31T15:09:38;4.78;;;1.42;;
17382;SDS011;8809;51.892;8.384;2023-03-31T15:12:10;3.10;;;1.33;;
17382;SDS011;8809;51.892;8.384;2023-03-31T15:14:39;4.32;;;1.60;;
17382;SDS011;8809;51.892;8.384;2023-03-31T15:17:15;3.40;;;1.45;;
17382;SDS011;8809;51.892;8.384;2023-03-31T15:19:50;4.65;;;1.63;;
17382;SDS011;8809;51.892;8.384;2023-03-31T15:22:20;4.03;;;1.70;;
17382;SDS011;8809;51.892;8.384;2023-03-31T15:24:48;4.72;;;1.40;;
17382;SDS011;8809;51.892;8.384;2023-03-31T15:27:17;7.03;;;1.75;;
17382;SDS011;8809;51.892;8.384;2023-03-31T15:29:50;5.40;;;1.48;;
17382;SDS011;8809;51.892;8.384;2023-03-31T15:32:21;5.15;;;1.90;;
17382;SDS011;8809;51.892;8.384;2023-03-31T15:34:53;6.38;;;1.90;;
17382;SDS011;8809;51.892;8.384;2023-03-31T15:37:21;5.97;;;2.08;;
17382;SDS011;8809;51.892;8.384;2023-03-31T15:39:53;5.72;;;1.85;;
17382;SDS011;8809;51.892;8.384;2023-03-31T15:42:22;4.68;;;1.83;;
17382;SDS011;8809;51.892;8.384;2023-03-31T15:44:53;3.60;;;1.60;;
17382;SDS011;8809;51.892;8.384;2023-03-31T15:47:22;7.50;;;1.80;;
17382;SDS011;8809;51.892;8.384;2023-03-31T15:49:56;5.03;;;1.77;;
17382;SDS011;8809;51.892;8.384;2023-03-31T15:52:29;3.50;;;1.60;;
17382;SDS011;8809;51.892;8.384;2023-03-31T15:54:58;4.00;;;1.88;;
17382;SDS011;8809;51.892;8.384;2023-03-31T15:57:30;4.22;;;1.65;;
17382;SDS011;8809;51.892;8.384;2023-03-31T15:59:59;4.70;;;1.95;;
17382;SDS011;8809;51.892;8.384;2023-03-31T16:02:28;5.00;;;1.90;;